Time;durP1;ratioP1;P1;durP2;ratioP2;P2;SDS_P1;SDS_P2;PMS_P1;PMS_P2;Temp;Humidity;BMP_temperature;BMP_pressure;BME280_temperature;BME280_humidity;BME280_pressure;Samples;Min_cycle;Max_cycle;Signal;HPM_P1;HPM_P2
2022/01/18 00:02:54;;;;;;;3.90;1.52;;;;;;;-1.91;72.97;97579.88;1861429;77;20950;-60
2022/01/18 00:05:20;;;;;;;4.65;1.62;;;;;;;-1.95;73.00;97586.56;1861518;77;20872;-62
2022/01/18 00:07:48;;;;;;;3.42;1.55;;;;;;;-1.98;72.64;97600.14;1861597;77;22236;-66
2022/01/18 00:10:15;;;;;;;5.97;1.55;;;;;;;-1.99;72.16;97605.09;1861638;77;20859;-71
2022/01/18 00:12:55;;;;;;;2.47;1.20;;;;;;;-2.01;72.06;97615.02;1861587;77;20871;-65
2022/01/18 00:15:31;;;;;;;4.05;1.30;;;;;;;-2.04;71.82;97622.00;1860926;77;20887;-70
2022/01/18 00:18:07;;;;;;;3.52;1.40;;;;;;;-2.07;71.90;97621.13;1861096;77;21500;-62
2022/01/18 00:20:36;;;;;;;3.42;1.40;;;;;;;-2.12;71.29;97636.22;1861048;77;21111;-63
2022/01/18 00:22:51;;;;;;;3.37;1.17;;;;;;;-2.11;71.02;97639.64;1840831;77;20904;-61
2022/01/18 00:25:18;;;;;;;2.72;1.20;;;;;;;-2.13;71.48;97651.69;1839783;77;21436;-65
2022/01/18 00:27:45;;;;;;;3.75;1.05;;;;;;;-2.15;71.25;97662.91;1849827;77;20865;-62
2022/01/18 00:33:14;;;;;;;3.25;1.52;;;;;;;-2.18;71.15;97673.02;1846495;76;21091;-69
2022/01/18 00:35:33;;;;;;;2.93;1.20;;;;;;;-2.19;70.87;97687.18;1842795;77;20970;-61
2022/01/18 00:37:59;;;;;;;3.87;1.20;;;;;;;-2.23;69.98;97701.73;1837533;77;21852;-67
2022/01/18 00:40:26;;;;;;;6.00;1.37;;;;;;;-2.24;70.44;97705.39;1838979;77;20932;-62
2022/01/18 00:42:53;;;;;;;4.05;1.27;;;;;;;-2.27;70.06;97717.11;1836431;77;21415;-65
2022/01/18 00:45:19;;;;;;;1.90;0.90;;;;;;;-2.30;70.25;97716.72;1837256;77;21062;-70
2022/01/18 00:47:46;;;;;;;3.92;1.20;;;;;;;-2.31;70.00;97713.83;1841794;77;20920;-69
2022/01/18 00:50:13;;;;;;;2.90;1.30;;;;;;;-2.33;69.79;97710.09;1840480;77;20939;-65
2022/01/18 00:52:42;;;;;;;3.50;1.37;;;;;;;-2.34;70.00;97724.23;1844808;77;20872;-61
2022/01/18 00:55:11;;;;;;;4.10;1.30;;;;;;;-2.35;70.14;97725.24;1842399;77;20915;-61
2022/01/18 00:57:37;;;;;;;5.87;1.15;;;;;;;-2.36;70.45;97731.52;1836182;77;21089;-69
2022/01/18 01:00:06;;;;;;;4.30;1.47;;;;;;;-2.38;70.39;97732.75;1837472;77;21387;-70
2022/01/18 01:02:33;;;;;;;2.50;1.00;;;;;;;-2.39;70.02;97751.62;1847978;77;21298;-61
2022/01/18 01:04:59;;;;;;;3.70;1.40;;;;;;;-2.38;69.92;97751.11;1848522;77;20920;-61
2022/01/18 01:07:26;;;;;;;3.05;1.20;;;;;;;-2.40;70.42;97746.06;1841352;77;21010;-66
2022/01/18 01:09:53;;;;;;;2.37;0.93;;;;;;;-2.42;69.88;97768.27;1844406;77;21740;-72
2022/01/18 01:12:23;;;;;;;2.65;1.07;;;;;;;-2.43;70.14;97750.45;1842517;77;20900;-69
2022/01/18 01:14:52;;;;;;;3.15;1.55;;;;;;;-2.44;69.92;97771.62;1849150;77;21409;-65
2022/01/18 01:17:42;;;;;;;3.75;1.42;;;;;;;-2.47;69.77;97763.67;1848700;77;20888;-64
2022/01/18 01:33:58;;;;;;;2.77;1.10;;;;;;;-2.56;70.36;97787.74;1849571;77;21539;-65
2022/01/18 01:44:06;;;;;;;5.60;1.10;;;;;;;-2.59;70.41;97810.48;1845839;77;20896;-68
2022/01/18 01:46:31;;;;;;;2.45;0.95;;;;;;;-2.59;70.49;97830.14;1849411;77;21442;-69
2022/01/18 01:48:59;;;;;;;3.08;1.05;;;;;;;-2.57;70.78;97830.73;1835656;77;21362;-61
2022/01/18 01:51:30;;;;;;;5.22;1.30;;;;;;;-2.57;70.84;97834.66;1839305;77;21498;-65
2022/01/18 01:53:59;;;;;;;3.83;1.15;;;;;;;-2.58;70.83;97834.36;1839025;77;20879;-60
2022/01/18 01:56:26;;;;;;;2.72;1.00;;;;;;;-2.59;70.93;97832.77;1840180;77;20911;-63
2022/01/18 01:58:53;;;;;;;3.50;1.10;;;;;;;-2.61;70.75;97843.45;1849255;77;20936;-71
2022/01/18 02:01:20;;;;;;;3.52;1.22;;;;;;;-2.64;70.83;97831.27;1849202;77;21104;-71
2022/01/18 02:03:48;;;;;;;2.67;1.15;;;;;;;-2.66;70.79;97840.64;1844411;77;20812;-64
2022/01/18 02:06:14;;;;;;;3.80;1.22;;;;;;;-2.66;70.99;97842.48;1839764;77;20853;-62
2022/01/18 02:08:43;;;;;;;4.10;1.17;;;;;;;-2.68;71.18;97847.11;1841655;77;20877;-71
2022/01/18 02:11:10;;;;;;;2.25;1.15;;;;;;;-2.69;71.24;97848.95;1835716;77;20963;-69
2022/01/18 02:13:37;;;;;;;3.37;1.20;;;;;;;-2.70;71.42;97855.70;1834630;77;21715;-71
2022/01/18 02:24:07;;;;;;;3.27;1.10;;;;;;;-2.66;71.65;97866.09;1839009;77;20974;-64
2022/01/18 02:26:34;;;;;;;2.92;1.10;;;;;;;-2.67;71.61;97874.45;1848316;77;21115;-61
2022/01/18 02:29:07;;;;;;;2.80;1.00;;;;;;;-2.67;71.73;97883.63;1849309;77;20864;-70
2022/01/18 02:31:34;;;;;;;3.77;1.30;;;;;;;-2.66;71.54;97873.95;1839383;77;20867;-65
2022/01/18 02:34:08;;;;;;;3.15;1.40;;;;;;;-2.66;71.67;97880.50;1836648;77;21379;-68
2022/01/18 02:36:35;;;;;;;2.40;1.37;;;;;;;-2.67;71.79;97878.38;1840227;77;20833;-62
2022/01/18 02:39:02;;;;;;;3.72;1.80;;;;;;;-2.68;71.73;97887.25;1832461;77;21099;-62
2022/01/18 02:41:32;;;;;;;2.22;1.17;;;;;;;-2.67;71.75;97888.06;1847901;77;20943;-62
2022/01/18 02:44:01;;;;;;;2.52;1.15;;;;;;;-2.65;71.61;97891.27;1849177;77;20864;-63
2022/01/18 02:46:27;;;;;;;2.40;1.02;;;;;;;-2.66;71.60;97887.06;1844203;77;20832;-70
2022/01/18 02:48:56;;;;;;;3.50;1.00;;;;;;;-2.67;71.70;97900.67;1837007;77;20837;-70
2022/01/18 02:51:23;;;;;;;4.28;1.15;;;;;;;-2.66;71.56;97904.10;1836283;77;21109;-67
2022/01/18 02:54:02;;;;;;;3.83;1.40;;;;;;;-2.63;71.40;97903.66;1839664;77;20896;-69
2022/01/18 02:56:42;;;;;;;3.75;1.70;;;;;;;-2.61;71.71;97912.13;1838408;77;20959;-62
2022/01/18 02:59:22;;;;;;;3.05;1.52;;;;;;;-2.61;71.76;97921.30;1849777;77;20935;-69
2022/01/18 03:04:39;;;;;;;4.10;1.42;;;;;;;-2.61;71.86;97918.68;1844529;77;21109;-64
2022/01/18 03:07:05;;;;;;;6.62;1.35;;;;;;;-2.60;71.98;97920.30;1849095;77;21342;-70
2022/01/18 03:09:33;;;;;;;5.40;1.67;;;;;;;-2.59;72.14;97916.68;1837609;77;20857;-61
2022/01/18 03:12:00;;;;;;;5.65;1.12;;;;;;;-2.60;71.70;97928.98;1835882;77;20899;-70
2022/01/18 03:14:27;;;;;;;2.67;1.07;;;;;;;-2.56;71.83;97937.22;1835660;77;21002;-64
2022/01/18 03:16:53;;;;;;;2.60;1.30;;;;;;;-2.57;72.00;97921.20;1843457;77;21892;-68
2022/01/18 03:19:20;;;;;;;3.62;1.20;;;;;;;-2.57;72.05;97931.70;1844049;77;20879;-62
2022/01/18 03:21:49;;;;;;;4.95;2.08;;;;;;;-2.56;72.02;97935.91;1843361;77;20908;-68
2022/01/18 03:29:38;;;;;;;3.45;1.55;;;;;;;-2.60;72.33;97957.83;1839730;77;21755;-59
2022/01/18 03:32:06;;;;;;;3.40;1.37;;;;;;;-2.59;72.27;97965.20;1837307;77;20861;-61
2022/01/18 03:34:34;;;;;;;5.00;1.20;;;;;;;-2.60;72.37;97962.26;1841170;77;21434;-63
2022/01/18 03:37:02;;;;;;;4.65;1.80;;;;;;;-2.59;72.47;97969.12;1842262;77;20982;-69
2022/01/18 03:39:29;;;;;;;4.45;1.15;;;;;;;-2.57;72.56;97977.09;1845294;77;20963;-64
2022/01/18 03:42:07;;;;;;;8.30;2.62;;;;;;;-2.55;72.43;97972.94;1844267;77;21294;-60
2022/01/18 03:44:25;;;;;;;4.90;1.72;;;;;;;-2.55;72.25;97970.31;1835613;77;20966;-69
2022/01/18 03:46:53;;;;;;;4.00;1.10;;;;;;;-2.56;72.18;97963.45;1839727;77;21287;-63
2022/01/18 03:49:23;;;;;;;6.03;1.50;;;;;;;-2.54;72.19;97975.88;1844295;77;21275;-69
2022/01/18 03:51:49;;;;;;;3.08;1.10;;;;;;;-2.52;71.95;97977.78;1849185;77;20911;-60
2022/01/18 03:54:21;;;;;;;5.53;1.20;;;;;;;-2.54;71.99;97980.59;1840557;77;21168;-70
2022/01/18 03:56:44;;;;;;;5.30;1.42;;;;;;;-2.54;71.99;97986.36;1842880;77;21375;-71
2022/01/18 03:59:10;;;;;;;3.65;1.70;;;;;;;-2.56;71.99;97990.48;1825603;77;20891;-72
2022/01/18 04:01:37;;;;;;;3.77;1.30;;;;;;;-2.55;72.20;97991.30;1835541;77;20872;-68
2022/01/18 04:04:04;;;;;;;2.33;1.25;;;;;;;-2.53;72.14;97990.58;1840794;77;20876;-68
2022/01/18 04:06:32;;;;;;;3.45;0.93;;;;;;;-2.52;72.14;97983.02;1842452;77;21869;-59
2022/01/18 04:08:59;;;;;;;5.00;1.30;;;;;;;-2.53;72.07;97994.52;1845381;77;20951;-67
2022/01/18 04:11:27;;;;;;;3.20;1.12;;;;;;;-2.54;71.79;97995.54;1834430;77;20939;-61
2022/01/18 04:13:54;;;;;;;4.87;1.30;;;;;;;-2.54;71.86;97999.47;1833078;77;21429;-59
2022/01/18 04:16:21;;;;;;;3.95;1.30;;;;;;;-2.53;71.74;98002.38;1845719;77;20908;-59
2022/01/18 04:18:55;;;;;;;3.05;1.05;;;;;;;-2.53;71.72;98016.30;1849277;77;21875;-60
2022/01/18 04:29:15;;;;;;;1.98;1.05;;;;;;;-2.57;71.37;98022.98;1842636;77;20900;-62
2022/01/18 04:31:41;;;;;;;5.22;2.40;;;;;;;-2.59;71.51;98011.87;1837410;77;21213;-61
2022/01/18 04:34:08;;;;;;;2.83;1.55;;;;;;;-2.58;71.56;98023.17;1838681;77;21415;-60
2022/01/18 04:36:36;;;;;;;3.42;1.60;;;;;;;-2.58;71.51;98023.17;1837165;77;20829;-64
2022/01/18 04:39:03;;;;;;;3.25;1.05;;;;;;;-2.59;71.46;98020.27;1839501;77;20872;-67
2022/01/18 04:41:31;;;;;;;3.00;1.10;;;;;;;-2.61;71.45;98024.88;1834912;77;21502;-64
2022/01/18 04:49:15;;;;;;;5.33;1.47;;;;;;;-2.63;71.53;98029.53;1849246;77;20896;-68
2022/01/18 04:51:42;;;;;;;3.50;1.25;;;;;;;-2.63;71.70;98034.77;1849242;77;21379;-68
2022/01/18 04:54:11;;;;;;;4.55;1.35;;;;;;;-2.61;71.50;98039.30;1835901;77;21449;-67
2022/01/18 04:59:08;;;;;;;2.70;1.20;;;;;;;-2.57;71.36;98030.04;1849152;77;20937;-61
2022/01/18 05:01:35;;;;;;;3.15;1.22;;;;;;;-2.58;71.41;98038.91;1828652;77;20903;-68
2022/01/18 05:04:02;;;;;;;4.05;1.00;;;;;;;-2.58;71.46;98044.96;1840348;77;20833;-69
2022/01/18 05:06:30;;;;;;;3.25;1.10;;;;;;;-2.58;71.68;98052.02;1849323;77;21521;-64
2022/01/18 05:09:00;;;;;;;2.85;1.12;;;;;;;-2.59;71.94;98051.73;1849248;77;21113;-61
2022/01/18 05:11:28;;;;;;;3.85;1.30;;;;;;;-2.61;72.17;98051.92;1844389;77;20888;-66
2022/01/18 05:24:02;;;;;;;5.17;1.77;;;;;;;-2.54;73.69;98052.70;1723937;80;20844;-61
2022/01/18 05:26:29;;;;;;;3.47;1.40;;;;;;;-2.53;73.99;98060.08;1841595;77;21466;-62
2022/01/18 05:28:57;;;;;;;6.10;1.40;;;;;;;-2.51;74.36;98068.55;1841563;77;21027;-64
2022/01/18 05:31:25;;;;;;;3.85;2.08;;;;;;;-2.49;74.54;98049.47;1849192;77;20821;-64
2022/01/18 05:33:53;;;;;;;5.80;1.95;;;;;;;-2.48;74.97;98061.09;1849206;77;21111;-65
2022/01/18 05:36:24;;;;;;;4.87;1.62;;;;;;;-2.46;75.19;98058.24;1849105;77;20923;-64
2022/01/18 05:38:50;;;;;;;4.90;1.65;;;;;;;-2.43;75.38;98057.84;1847149;77;20911;-65
2022/01/18 05:41:17;;;;;;;4.90;1.85;;;;;;;-2.42;75.84;98059.44;1834906;77;20974;-62
2022/01/18 05:43:44;;;;;;;5.22;1.90;;;;;;;-2.40;76.10;98068.72;1830617;77;20944;-64
2022/01/18 05:46:11;;;;;;;5.87;1.90;;;;;;;-2.37;76.21;98062.25;1848781;77;21108;-67
2022/01/18 05:48:38;;;;;;;6.35;2.00;;;;;;;-2.34;76.44;98067.91;1832833;77;21405;-69
2022/01/18 05:51:04;;;;;;;4.78;1.72;;;;;;;-2.30;76.79;98064.34;1843751;77;20861;-61
2022/01/18 05:53:39;;;;;;;3.50;1.60;;;;;;;-2.31;77.01;98071.94;1838297;77;21387;-59
2022/01/18 05:56:11;;;;;;;4.40;1.60;;;;;;;-2.28;77.34;98076.75;1847961;77;20872;-64
2022/01/18 05:58:41;;;;;;;3.92;1.52;;;;;;;-2.28;77.87;98080.19;1838209;77;21759;-67
2022/01/18 06:01:08;;;;;;;6.33;1.80;;;;;;;-2.27;78.17;98073.13;1840655;77;21450;-61
2022/01/18 06:03:52;;;;;;;6.80;2.33;;;;;;;-2.23;78.44;98078.25;1844734;77;20876;-60
2022/01/18 06:08:49;;;;;;;7.08;2.10;;;;;;;-2.20;79.34;98076.03;1839901;77;20912;-68
2022/01/18 06:11:15;;;;;;;6.53;2.08;;;;;;;-2.17;79.48;98085.31;1849666;77;21093;-67
2022/01/18 06:13:42;;;;;;;4.78;1.90;;;;;;;-2.13;79.91;98083.88;1849151;77;21434;-60
2022/01/18 06:16:10;;;;;;;6.50;1.87;;;;;;;-2.10;80.00;98081.63;1837720;77;20924;-68
2022/01/18 06:18:37;;;;;;;9.58;2.35;;;;;;;-2.07;80.17;98101.41;1849112;77;20939;-70
2022/01/18 06:21:04;;;;;;;6.80;2.12;;;;;;;-2.03;80.60;98100.00;1834460;77;20859;-68
2022/01/18 06:23:31;;;;;;;7.10;2.50;;;;;;;-2.00;80.50;98108.75;1835213;77;21742;-62
2022/01/18 06:25:58;;;;;;;6.28;2.20;;;;;;;-1.98;80.67;98105.44;1838635;78;20960;-61
2022/01/18 06:28:25;;;;;;;7.83;2.25;;;;;;;-1.95;80.78;98114.19;1835864;77;20903;-66
2022/01/18 06:30:51;;;;;;;4.60;2.00;;;;;;;-1.92;80.97;98103.78;1831564;77;20963;-67
2022/01/18 06:33:18;;;;;;;5.78;2.25;;;;;;;-1.90;81.00;98117.00;1841059;77;20856;-66
2022/01/18 06:35:45;;;;;;;4.20;2.00;;;;;;;-1.87;81.05;98119.22;1844267;77;21380;-68
2022/01/18 06:38:13;;;;;;;8.58;2.30;;;;;;;-1.84;81.04;98110.94;1840161;77;21034;-69
2022/01/18 06:40:40;;;;;;;6.03;2.75;;;;;;;-1.80;80.99;98109.50;1842464;77;21489;-63
2022/01/18 06:43:06;;;;;;;6.72;2.40;;;;;;;-1.76;80.82;98125.63;1832827;77;20964;-63
2022/01/18 06:45:33;;;;;;;6.47;1.82;;;;;;;-1.74;80.80;98124.91;1841135;77;20857;-62
2022/01/18 06:48:00;;;;;;;4.45;1.85;;;;;;;-1.74;80.42;98118.34;1846717;77;21715;-68
2022/01/18 06:50:27;;;;;;;5.15;1.67;;;;;;;-1.73;80.23;98120.78;1849283;77;20955;-70
2022/01/18 06:52:53;;;;;;;6.30;2.77;;;;;;;-1.70;80.14;98120.38;1832658;77;20975;-69
2022/01/18 06:55:21;;;;;;;6.20;2.27;;;;;;;-1.69;80.04;98114.09;1827899;77;21043;-67
2022/01/18 06:57:47;;;;;;;8.63;2.45;;;;;;;-1.66;79.93;98122.88;1838144;77;20916;-67
2022/01/18 07:00:16;;;;;;;6.72;2.52;;;;;;;-1.66;79.86;98126.81;1842971;77;21025;-67
2022/01/18 07:02:43;;;;;;;6.60;2.35;;;;;;;-1.66;79.84;98128.13;1835417;77;21374;-68
2022/01/18 07:05:11;;;;;;;4.60;1.92;;;;;;;-1.64;79.78;98136.59;1844373;77;20920;-68
2022/01/18 07:07:40;;;;;;;5.90;2.65;;;;;;;-1.65;79.72;98140.75;1836104;77;20923;-60
2022/01/18 07:10:08;;;;;;;6.75;2.60;;;;;;;-1.64;79.64;98137.91;1841000;77;20928;-62
2022/01/18 07:12:36;;;;;;;8.43;2.80;;;;;;;-1.63;79.57;98135.59;1836318;77;21110;-63
2022/01/18 07:15:06;;;;;;;7.33;2.85;;;;;;;-1.62;79.65;98139.81;1837759;77;20837;-67
2022/01/18 07:17:38;;;;;;;5.25;2.27;;;;;;;-1.58;79.50;98142.31;1821337;77;20995;-70
2022/01/18 07:20:08;;;;;;;5.17;2.33;;;;;;;-1.55;79.33;98134.02;1823028;77;20853;-65
2022/01/18 07:22:35;;;;;;;4.17;2.17;;;;;;;-1.54;79.02;98138.77;1832728;77;21407;-64
2022/01/18 07:25:10;;;;;;;6.28;2.40;;;;;;;-1.51;78.97;98133.89;1820052;77;21140;-60
2022/01/18 07:27:30;;;;;;;10.85;2.37;;;;;;;-1.49;78.86;98141.08;1823716;77;20903;-63
2022/01/18 07:29:57;;;;;;;5.28;1.95;;;;;;;-1.48;78.64;98153.19;1823018;77;21467;-61
2022/01/18 07:32:24;;;;;;;6.10;2.37;;;;;;;-1.45;78.30;98137.01;1823989;77;20871;-60
2022/01/18 07:34:52;;;;;;;7.60;2.62;;;;;;;-1.42;78.30;98136.59;1833686;77;20979;-60
2022/01/18 07:37:20;;;;;;;9.98;2.70;;;;;;;-1.40;78.19;98147.70;1820788;77;20984;-67
2022/01/18 07:39:49;;;;;;;6.03;2.83;;;;;;;-1.39;78.32;98141.41;1822031;77;21172;-63
2022/01/18 07:42:17;;;;;;;7.90;2.85;;;;;;;-1.35;78.22;98139.69;1799829;78;21017;-67
2022/01/18 07:44:45;;;;;;;9.68;2.02;;;;;;;-1.35;77.92;98137.87;1817775;77;21411;-63
2022/01/18 07:47:12;;;;;;;6.70;2.45;;;;;;;-1.35;78.07;98151.51;1829367;77;21515;-68
2022/01/18 07:49:39;;;;;;;8.75;2.35;;;;;;;-1.35;77.96;98168.09;1823086;77;21088;-67
2022/01/18 07:52:06;;;;;;;5.03;2.12;;;;;;;-1.34;77.99;98166.27;1814272;77;21458;-66
2022/01/18 07:54:33;;;;;;;5.22;2.05;;;;;;;-1.33;77.83;98174.44;1821398;77;20884;-60
2022/01/18 07:57:00;;;;;;;3.60;1.90;;;;;;;-1.32;77.67;98161.11;1828465;77;20983;-62
2022/01/18 07:59:27;;;;;;;4.72;2.20;;;;;;;-1.32;77.93;98177.38;1810988;78;21520;-63
2022/01/18 08:01:55;;;;;;;6.30;1.90;;;;;;;-1.33;78.16;98177.06;1805431;78;21115;-67
2022/01/18 08:04:22;;;;;;;6.30;1.82;;;;;;;-1.34;78.56;98180.19;1815392;78;21236;-74
2022/01/18 08:06:49;;;;;;;5.10;1.72;;;;;;;-1.33;78.65;98164.73;1838409;77;20908;-65
2022/01/18 08:09:19;;;;;;;2.83;1.60;;;;;;;-1.31;78.75;98176.34;1817369;77;20924;-66
2022/01/18 08:11:46;;;;;;;4.35;1.82;;;;;;;-1.26;78.86;98163.38;1816826;77;21098;-70
2022/01/18 08:14:16;;;;;;;7.37;2.10;;;;;;;-1.19;78.51;98173.34;1824286;77;21847;-62
2022/01/18 08:16:50;;;;;;;4.83;2.10;;;;;;;-1.15;78.21;98181.09;1814901;77;20848;-68
2022/01/18 08:19:17;;;;;;;5.25;1.67;;;;;;;-1.14;78.03;98189.30;1834134;77;21058;-63
2022/01/18 08:21:46;;;;;;;5.92;2.20;;;;;;;-1.13;78.17;98186.98;1820431;77;21018;-60
2022/01/18 08:24:13;;;;;;;6.22;2.30;;;;;;;-1.14;78.03;98190.61;1819453;77;21098;-69
2022/01/18 08:26:40;;;;;;;5.47;1.65;;;;;;;-1.13;77.85;98200.13;1810602;77;21110;-69
2022/01/18 08:29:08;;;;;;;8.18;2.40;;;;;;;-1.09;77.83;98198.17;1807580;78;21532;-72
2022/01/18 08:31:36;;;;;;;4.75;1.98;;;;;;;-1.07;77.71;98209.78;1810007;78;21445;-66
2022/01/18 08:34:03;;;;;;;4.37;2.05;;;;;;;-1.06;77.53;98213.50;1809496;78;20923;-62
2022/01/18 08:36:32;;;;;;;6.03;2.15;;;;;;;-1.01;77.67;98228.64;1768352;78;21045;-62
2022/01/18 08:39:08;;;;;;;6.97;1.77;;;;;;;-0.96;77.50;98225.69;1822949;77;21408;-66
2022/01/18 08:41:36;;;;;;;4.08;1.82;;;;;;;-0.92;77.52;98225.56;1815852;77;21477;-63
2022/01/18 08:44:05;;;;;;;3.67;1.80;;;;;;;-0.87;77.45;98240.70;1826123;77;20990;-63
2022/01/18 08:46:33;;;;;;;3.10;1.45;;;;;;;-0.83;77.56;98253.75;1825162;77;21358;-62
2022/01/18 08:49:00;;;;;;;3.85;1.72;;;;;;;-0.78;77.52;98241.55;1818811;77;20959;-62
2022/01/18 08:51:27;;;;;;;4.85;1.60;;;;;;;-0.79;77.35;98261.00;1814746;78;21118;-62
2022/01/18 08:53:54;;;;;;;4.70;1.90;;;;;;;-0.79;77.61;98266.77;1745569;80;21383;-63
2022/01/18 08:56:21;;;;;;;4.03;2.00;;;;;;;-0.78;77.53;98271.02;1799000;78;20893;-61
2022/01/18 08:58:48;;;;;;;4.33;1.50;;;;;;;-0.77;77.53;98262.09;1796721;79;20987;-67
2022/01/18 09:01:15;;;;;;;4.95;1.72;;;;;;;-0.77;77.03;98280.01;1776780;78;20920;-67
2022/01/18 09:03:43;;;;;;;4.45;1.75;;;;;;;-0.72;76.69;98274.92;1773501;79;21116;-63
2022/01/18 09:06:15;;;;;;;6.67;1.85;;;;;;;-0.65;76.22;98271.43;1802562;79;20959;-67
2022/01/18 09:08:41;;;;;;;3.65;1.30;;;;;;;-0.62;75.74;98273.14;1787319;79;20984;-65
2022/01/18 09:11:11;;;;;;;5.25;1.52;;;;;;;-0.55;75.27;98275.22;1764600;79;21051;-69
2022/01/18 09:13:39;;;;;;;5.97;1.57;;;;;;;-0.44;75.46;98281.61;1753083;81;21443;-63
2022/01/18 09:16:09;;;;;;;3.83;1.70;;;;;;;-0.36;74.40;98272.97;1758948;80;21098;-67
2022/01/18 09:18:37;;;;;;;4.65;1.90;;;;;;;-0.27;73.47;98273.50;1755110;80;20904;-63
2022/01/18 09:21:05;;;;;;;4.03;1.77;;;;;;;-0.22;73.34;98273.67;1744360;80;21086;-63
2022/01/18 09:23:33;;;;;;;3.85;1.47;;;;;;;-0.23;73.13;98279.44;1759169;80;21026;-58
2022/01/18 09:26:01;;;;;;;7.35;1.40;;;;;;;-0.22;73.17;98286.33;1754057;80;21430;-69
2022/01/18 09:28:30;;;;;;;3.52;1.42;;;;;;;-0.25;73.07;98285.44;1757756;80;21063;-66
2022/01/18 09:30:59;;;;;;;3.50;1.55;;;;;;;-0.31;73.14;98281.03;1726270;81;21365;-69
2022/01/18 09:33:37;;;;;;;4.00;1.60;;;;;;;-0.36;73.22;98300.61;1786332;77;21050;-62
2022/01/18 09:36:06;;;;;;;4.90;1.35;;;;;;;-0.39;73.29;98300.20;1801996;77;21491;-61
2022/01/18 09:38:35;;;;;;;3.70;1.50;;;;;;;-0.36;73.72;98303.23;1824126;77;20874;-66
2022/01/18 09:41:10;;;;;;;2.42;1.50;;;;;;;-0.35;73.64;98304.83;1822986;77;21107;-65
2022/01/18 09:43:35;;;;;;;2.40;1.37;;;;;;;-0.31;73.80;98313.94;1767637;79;21063;-64
2022/01/18 09:46:02;;;;;;;5.17;1.80;;;;;;;-0.28;72.84;98307.41;1751141;79;21140;-63
2022/01/18 09:48:31;;;;;;;2.92;1.55;;;;;;;-0.28;73.38;98309.55;1749066;79;20987;-70
2022/01/18 09:50:59;;;;;;;3.90;1.60;;;;;;;-0.31;72.82;98317.89;1785302;79;21040;-57
2022/01/18 09:53:27;;;;;;;4.47;1.62;;;;;;;-0.35;72.71;98323.77;1808764;77;21578;-69
2022/01/18 09:55:55;;;;;;;4.40;1.65;;;;;;;-0.36;72.86;98328.74;1823406;77;20928;-61
2022/01/18 09:58:23;;;;;;;4.85;1.57;;;;;;;-0.35;72.70;98337.73;1807615;77;21026;-58
2022/01/18 10:00:53;;;;;;;4.00;1.80;;;;;;;-0.32;72.69;98315.45;1795798;78;20976;-65
2022/01/18 10:03:32;;;;;;;2.27;1.30;;;;;;;-0.27;72.04;98320.38;1801855;78;21160;-58
2022/01/18 10:06:01;;;;;;;5.05;1.77;;;;;;;-0.26;71.13;98337.77;1820803;77;21104;-69
2022/01/18 10:08:28;;;;;;;4.85;1.57;;;;;;;-0.26;70.99;98327.24;1823333;77;21469;-69
2022/01/18 10:11:14;;;;;;;3.95;1.82;;;;;;;-0.28;71.05;98317.44;1825848;77;21047;-62
2022/01/18 10:13:49;;;;;;;5.47;1.98;;;;;;;-0.26;71.18;98318.03;1819766;77;21037;-61
2022/01/18 10:16:24;;;;;;;5.28;2.05;;;;;;;-0.24;71.17;98325.73;1787261;77;20896;-63
2022/01/18 10:19:03;;;;;;;5.53;2.00;;;;;;;-0.25;69.95;98309.13;1822020;77;21634;-68
2022/01/18 10:21:35;;;;;;;1999.90;999.90;;;;;;;-0.19;69.01;98299.05;1835721;77;20956;-67
2022/01/18 10:24:25;;;;;;;1999.90;999.90;;;;;;;-0.12;68.37;98323.50;1828745;77;20879;-63
2022/01/18 10:26:56;;;;;;;4.95;1.75;;;;;;;-0.05;68.30;98318.98;1813154;79;21399;-63
2022/01/18 10:29:32;;;;;;;6.75;2.15;;;;;;;-0.05;68.27;98334.78;1823544;77;21368;-70
2022/01/18 10:32:08;;;;;;;3.75;1.42;;;;;;;-0.06;67.76;98335.83;1834343;77;21737;-63
2022/01/18 10:37:06;;;;;;;;;;;;;;;-0.04;67.19;98339.55;1794317;78;20874;-60
2022/01/18 10:39:49;;;;;;;5.75;1.67;;;;;;;-0.04;66.49;98335.59;1768736;77;20277;-59
2022/01/18 10:42:38;;;;;;;2.98;1.25;;;;;;;-0.04;65.25;98333.78;1763733;78;20983;-64
2022/01/18 10:45:39;;;;;;;3.08;1.37;;;;;;;0.03;64.92;98325.81;1825134;77;21111;-61
2022/01/18 10:48:10;;;;;;;3.62;1.57;;;;;;;0.06;63.98;98335.94;1819703;77;21023;-66
2022/01/18 10:50:39;;;;;;;3.40;1.30;;;;;;;0.07;64.36;98330.16;1784226;78;20931;-61
2022/01/18 10:53:22;;;;;;;2.67;1.20;;;;;;;0.13;63.85;98335.37;1812564;79;20923;-63
2022/01/18 10:55:53;;;;;;;3.67;1.60;;;;;;;0.20;64.04;98341.39;1802464;78;21475;-63
2022/01/18 10:58:22;;;;;;;4.25;1.40;;;;;;;0.31;63.27;98347.27;1797088;78;21065;-65
2022/01/18 11:00:49;;;;;;;5.92;1.80;;;;;;;0.38;61.96;98339.30;1798344;78;20899;-59
2022/01/18 11:03:20;;;;;;;4.10;1.80;;;;;;;0.41;62.15;98337.05;1756531;79;21108;-59
2022/01/18 11:05:58;;;;;;;4.42;1.30;;;;;;;0.40;61.66;98353.87;1803087;77;21096;-63
2022/01/18 11:08:27;;;;;;;4.75;1.40;;;;;;;0.38;62.00;98368.28;1790640;78;21460;-65
2022/01/18 11:10:55;;;;;;;4.00;1.47;;;;;;;0.28;61.67;98354.81;1824959;77;21453;-62
2022/01/18 11:13:24;;;;;;;3.50;1.17;;;;;;;0.21;62.30;98369.36;1809771;77;21003;-61
2022/01/18 11:16:04;;;;;;;3.00;1.20;;;;;;;0.22;62.51;98376.73;1813976;77;21275;-58
2022/01/18 11:18:39;;;;;;;2.33;1.12;;;;;;;0.30;61.45;98368.56;1784256;78;21030;-59
2022/01/18 11:21:22;;;;;;;5.53;1.30;;;;;;;0.36;60.28;98367.70;1803222;77;21129;-60
2022/01/18 11:23:47;;;;;;;3.22;1.10;;;;;;;0.50;60.21;98377.09;1820101;77;21312;-60
2022/01/18 11:26:16;;;;;;;4.25;1.60;;;;;;;0.55;59.55;98377.26;1815973;78;20818;-55
2022/01/18 11:28:43;;;;;;;16.23;7.67;;;;;;;0.49;60.12;98378.14;1825929;77;20881;-65
2022/01/18 11:31:11;;;;;;;2.42;1.30;;;;;;;0.42;60.43;98383.47;1826800;77;21004;-61
2022/01/18 11:33:38;;;;;;;2.83;1.40;;;;;;;0.35;60.07;98387.18;1829701;77;21059;-62
2022/01/18 11:36:11;;;;;;;3.30;1.30;;;;;;;0.28;59.89;98395.14;1813573;77;21796;-58
2022/01/18 11:38:55;;;;;;;3.05;1.40;;;;;;;0.33;60.29;98389.23;1830251;77;21098;-61
2022/01/18 11:41:34;;;;;;;5.37;2.08;;;;;;;0.39;60.34;98389.67;1819642;77;21038;-59
2022/01/18 11:44:16;;;;;;;3.90;1.70;;;;;;;0.41;60.81;98391.58;1825145;77;21474;-60
2022/01/18 11:46:47;;;;;;;4.15;1.60;;;;;;;0.48;61.67;98394.96;1825917;77;21070;-58
2022/01/18 11:49:22;;;;;;;3.67;1.85;;;;;;;0.50;61.75;98394.23;1829399;77;21063;-62
2022/01/18 11:52:04;;;;;;;2.58;1.57;;;;;;;0.41;61.40;98398.16;1839227;77;21042;-60
2022/01/18 11:54:42;;;;;;;4.33;1.50;;;;;;;0.46;61.69;98407.05;1830197;77;20883;-58
2022/01/18 11:57:27;;;;;;;2.08;1.27;;;;;;;0.65;60.58;98409.22;1829106;77;20968;-59
2022/01/18 12:00:13;;;;;;;2.75;1.60;;;;;;;0.84;60.14;98413.50;1825910;77;20955;-65
2022/01/18 12:02:43;;;;;;;2.83;1.30;;;;;;;0.98;59.79;98411.53;1822361;77;21120;-59
2022/01/18 12:05:25;;;;;;;2.72;1.37;;;;;;;1.04;58.71;98416.73;1831634;77;21074;-63
2022/01/18 12:08:01;;;;;;;3.67;1.40;;;;;;;0.97;57.51;98419.95;1838660;77;21004;-65
2022/01/18 12:10:43;;;;;;;2.20;1.10;;;;;;;0.91;58.25;98426.11;1822910;77;20959;-60
2022/01/18 12:13:15;;;;;;;2.95;1.30;;;;;;;0.91;56.93;98451.67;1824362;77;21017;-66
2022/01/18 12:15:49;;;;;;;3.22;1.30;;;;;;;0.90;57.26;98436.35;1818005;77;21018;-61
2022/01/18 12:18:31;;;;;;;5.03;1.27;;;;;;;0.94;56.79;98449.92;1830311;78;21024;-63
2022/01/18 12:21:07;;;;;;;4.90;1.50;;;;;;;0.90;57.58;98452.17;1808187;78;21051;-59
2022/01/18 12:23:45;;;;;;;3.67;1.42;;;;;;;0.92;58.16;98446.70;1814692;78;20960;-60
2022/01/18 12:26:37;;;;;;;3.25;1.10;;;;;;;1.02;58.52;98462.31;1829032;77;21073;-61
2022/01/18 12:34:44;;;;;;;2.58;1.20;;;;;;;0.95;56.55;98481.86;1832471;77;20851;-67
2022/01/18 12:37:24;;;;;;;2.40;1.22;;;;;;;1.04;56.17;98475.27;1780704;78;21017;-64
2022/01/18 12:45:38;;;;;;;1.92;1.07;;;;;;;0.72;55.00;98496.97;1779599;79;21153;-64
2022/01/18 12:48:10;;;;;;;3.10;1.17;;;;;;;0.56;55.33;98517.28;1800350;79;20892;-61
2022/01/18 12:50:45;;;;;;;2.55;1.30;;;;;;;0.64;55.10;98507.77;1810085;78;20967;-58
2022/01/18 12:53:22;;;;;;;2.95;1.32;;;;;;;0.65;55.10;98507.58;1778524;79;20928;-59
2022/01/18 12:56:00;;;;;;;2.52;1.30;;;;;;;0.58;54.93;98521.82;1784631;79;21124;-62
2022/01/18 12:58:34;;;;;;;5.25;1.65;;;;;;;0.45;55.17;98538.52;1794622;79;20964;-64
2022/01/18 13:01:10;;;;;;;3.77;1.95;;;;;;;0.36;54.82;98525.30;1785003;78;21505;-66
2022/01/18 13:03:46;;;;;;;2.70;1.50;;;;;;;0.34;54.95;98544.98;1787264;79;21384;-60
2022/01/18 13:06:18;;;;;;;3.70;1.52;;;;;;;0.35;54.92;98535.56;1802287;78;21410;-63
2022/01/18 13:08:52;;;;;;;4.20;1.72;;;;;;;0.38;55.21;98542.21;1755775;79;21703;-61
2022/01/18 13:11:33;;;;;;;2.98;1.25;;;;;;;0.42;55.70;98544.23;1790935;79;21020;-65